createdAt,value
2018-09-12T20:54:36.202Z,4.63
2018-09-12T20:57:06.923Z,4.13
2018-09-12T20:59:37.453Z,3.90
2018-09-12T21:02:08.061Z,3.67
2018-09-12T21:04:38.577Z,2.83
2018-09-12T21:07:09.012Z,4.27
2018-09-12T21:09:39.624Z,3.67
2018-09-12T21:12:10.229Z,3.90
2018-09-12T21:14:40.879Z,3.73
2018-09-12T21:17:11.423Z,3.80
2018-09-12T21:19:41.954Z,3.20
2018-09-12T21:22:12.452Z,3.67
2018-09-12T21:24:42.825Z,3.90
2018-09-12T21:27:13.381Z,4.53
2018-09-12T21:29:44.051Z,3.60
2018-09-12T21:32:14.347Z,3.70
2018-09-12T21:34:44.782Z,3.73
2018-09-12T21:37:15.427Z,3.80
2018-09-12T21:39:46.089Z,3.57
2018-09-12T21:42:16.609Z,3.67
2018-09-12T21:44:47.164Z,3.80
2018-09-12T21:47:17.731Z,3.20
2018-09-12T21:49:48.276Z,3.57
2018-09-12T21:52:18.812Z,3.40
2018-09-12T21:54:49.327Z,3.10
2018-09-12T21:57:20.720Z,3.37
2018-09-12T21:59:51.276Z,3.43
2018-09-12T22:02:22.415Z,3.57
2018-09-12T22:04:52.878Z,3.33
2018-09-12T22:07:23.574Z,3.00
2018-09-12T22:09:53.375Z,3.50
2018-09-12T22:12:24.496Z,3.60
2018-09-12T22:14:55.072Z,3.70
2018-09-12T22:17:25.633Z,3.27
2018-09-12T22:19:56.143Z,3.40
2018-09-12T22:22:26.676Z,3.50
2018-09-12T22:24:57.300Z,3.33
2018-09-12T22:27:27.804Z,3.33
2018-09-12T22:29:58.313Z,3.30
2018-09-12T22:32:28.867Z,3.67
2018-09-12T22:34:59.349Z,3.60
2018-09-12T22:37:29.757Z,3.87
2018-09-12T22:40:00.197Z,3.40
2018-09-12T22:42:30.804Z,3.67
2018-09-12T22:45:01.339Z,3.60
2018-09-12T22:47:31.765Z,3.57
2018-09-12T22:50:02.383Z,4.03
2018-09-12T22:52:32.995Z,3.73
2018-09-12T22:55:03.673Z,3.77
2018-09-12T22:57:34.279Z,3.77
2018-09-12T23:00:04.935Z,4.17
2018-09-12T23:02:35.469Z,4.20
2018-09-12T23:05:05.967Z,4.00
2018-09-12T23:07:36.508Z,4.07
2018-09-12T23:10:07.124Z,4.10
2018-09-12T23:12:37.764Z,4.03
2018-09-12T23:15:08.410Z,3.77
2018-09-12T23:17:38.948Z,4.23
2018-09-12T23:20:09.470Z,4.63
2018-09-12T23:22:39.963Z,4.30
2018-09-12T23:25:11.528Z,4.50
2018-09-12T23:27:42.065Z,4.77
2018-09-12T23:30:12.760Z,4.60
2018-09-12T23:32:43.428Z,4.63
2018-09-12T23:35:13.959Z,4.53
2018-09-12T23:37:44.300Z,4.77
2018-09-12T23:40:14.837Z,4.23
2018-09-12T23:42:45.441Z,4.67
2018-09-12T23:45:15.890Z,4.83
2018-09-12T23:47:46.491Z,4.67
2018-09-12T23:50:16.905Z,5.40
2018-09-12T23:52:47.464Z,4.67
2018-09-12T23:55:18.180Z,5.10
2018-09-12T23:57:48.811Z,5.10
